Time;durP1;ratioP1;P1;durP2;ratioP2;P2;SDS_P1;SDS_P2;PMS_P1;PMS_P2;Temp;Humidity;BMP_temperature;BMP_pressure;BME280_temperature;BME280_humidity;BME280_pressure;Samples;Min_cycle;Max_cycle;Signal;HPM_P1;HPM_P2
2022/03/02 00:01:14;;;;;;;;;;;11.10;90.70;;;;;;5080896;28;20370;-79
2022/03/02 00:03:41;;;;;;;;;;;11.10;90.80;;;;;;5080193;28;19930;-79
2022/03/02 00:06:08;;;;;;;;;;;11.10;90.80;;;;;;5080142;28;19908;-79
2022/03/02 00:08:34;;;;;;;;;;;11.10;90.80;;;;;;5080279;28;19984;-79
2022/03/02 00:10:59;;;;;;;;;;;11.10;90.80;;;;;;5080346;28;20393;-79
2022/03/02 00:13:25;;;;;;;;;;;11.10;90.90;;;;;;5080520;28;20398;-79
2022/03/02 00:15:50;;;;;;;;;;;11.10;90.90;;;;;;5080330;28;19954;-80
2022/03/02 00:18:16;;;;;;;;;;;11.00;90.90;;;;;;5061983;28;19916;-80
2022/03/02 00:20:42;;;;;;;;;;;11.00;90.80;;;;;;5079587;28;19951;-78
2022/03/02 00:23:07;;;;;;;;;;;11.00;90.80;;;;;;5080059;28;19917;-78
2022/03/02 00:25:33;;;;;;;;;;;11.10;90.80;;;;;;5080119;28;19971;-78
2022/03/02 00:27:59;;;;;;;;;;;11.00;90.80;;;;;;5079972;28;19916;-79
2022/03/02 00:30:28;;;;;;;;;;;11.00;90.80;;;;;;5080093;28;20061;-79
2022/03/02 00:32:56;;;;;;;;;;;11.00;90.80;;;;;;5079597;28;19912;-78
2022/03/02 00:35:22;;;;;;;;;;;11.00;90.80;;;;;;5079739;28;19947;-79
2022/03/02 00:37:48;;;;;;;;;;;11.00;90.80;;;;;;5080004;28;19908;-79
2022/03/02 00:40:13;;;;;;;;;;;11.00;90.90;;;;;;5079554;28;19931;-79
2022/03/02 00:42:39;;;;;;;;;;;11.00;90.90;;;;;;5079535;28;19912;-79
2022/03/02 00:45:05;;;;;;;;;;;11.00;90.90;;;;;;5070622;28;19924;-79
2022/03/02 00:47:31;;;;;;;;;;;10.90;90.90;;;;;;5075255;28;19909;-79
2022/03/02 00:49:57;;;;;;;;;;;10.90;90.90;;;;;;5079455;28;19943;-79
2022/03/02 00:52:22;;;;;;;;;;;10.90;90.80;;;;;;5061439;28;19991;-79
2022/03/02 00:54:48;;;;;;;;;;;10.90;90.80;;;;;;5079571;28;19959;-79
2022/03/02 00:57:14;;;;;;;;;;;10.90;90.90;;;;;;5079367;28;19919;-79
2022/03/02 00:59:39;;;;;;;;;;;10.90;90.90;;;;;;5079628;28;19912;-78
2022/03/02 01:02:05;;;;;;;;;;;10.90;90.90;;;;;;5079282;28;19922;-78
2022/03/02 01:04:31;;;;;;;;;;;10.80;90.90;;;;;;5079004;28;19909;-78
2022/03/02 01:06:56;;;;;;;;;;;10.80;91.00;;;;;;5079051;28;20373;-79
2022/03/02 01:09:22;;;;;;;;;;;10.80;91.10;;;;;;5079295;28;19916;-78
2022/03/02 01:11:48;;;;;;;;;;;10.80;91.20;;;;;;5079057;28;19987;-79
2022/03/02 01:14:13;;;;;;;;;;;10.80;91.20;;;;;;5079188;28;19912;-79
2022/03/02 01:16:39;;;;;;;;;;;10.80;91.20;;;;;;5078965;28;19918;-79
2022/03/02 01:19:05;;;;;;;;;;;10.80;91.40;;;;;;5078986;28;19982;-79
2022/03/02 01:21:31;;;;;;;;;;;10.80;91.40;;;;;;5078896;28;19909;-79
2022/03/02 01:23:58;;;;;;;;;;;10.80;91.50;;;;;;5078917;28;19909;-79
2022/03/02 01:26:24;;;;;;;;;;;10.80;91.60;;;;;;5078775;28;20315;-79
2022/03/02 01:28:50;;;;;;;;;;;10.80;91.90;;;;;;5079131;28;19909;-79
2022/03/02 01:31:16;;;;;;;;;;;10.80;91.90;;;;;;5077842;28;19924;-79
2022/03/02 01:33:42;;;;;;;;;;;10.80;91.90;;;;;;5078565;28;20375;-79
2022/03/02 01:36:07;;;;;;;;;;;10.80;91.90;;;;;;5078287;28;20050;-79
2022/03/02 01:38:33;;;;;;;;;;;10.80;91.90;;;;;;5078782;28;19966;-79
2022/03/02 01:40:59;;;;;;;;;;;10.80;91.90;;;;;;5078230;28;20540;-79
2022/03/02 01:43:27;;;;;;;;;;;10.80;92.10;;;;;;5078496;28;20433;-79
2022/03/02 01:45:53;;;;;;;;;;;10.80;92.20;;;;;;5064841;28;19913;-78
2022/03/02 01:48:18;;;;;;;;;;;10.80;92.30;;;;;;5078621;28;19944;-78
2022/03/02 01:50:44;;;;;;;;;;;10.80;92.30;;;;;;5078012;28;19915;-79
2022/03/02 01:53:10;;;;;;;;;;;10.70;92.20;;;;;;5078499;28;19916;-79
2022/03/02 01:55:35;;;;;;;;;;;10.70;92.10;;;;;;5078138;28;19958;-79
2022/03/02 01:58:01;;;;;;;;;;;10.70;92.20;;;;;;5078465;28;19908;-79
2022/03/02 02:00:27;;;;;;;;;;;10.80;92.30;;;;;;5078131;28;19916;-78
2022/03/02 02:02:53;;;;;;;;;;;10.70;92.30;;;;;;5078199;28;20319;-78
2022/03/02 02:05:19;;;;;;;;;;;10.70;92.40;;;;;;5077685;28;20311;-78
2022/03/02 02:07:45;;;;;;;;;;;10.70;92.40;;;;;;5078302;28;19912;-78
2022/03/02 02:10:11;;;;;;;;;;;10.70;92.10;;;;;;5077935;28;20306;-78
2022/03/02 02:12:37;;;;;;;;;;;10.70;92.00;;;;;;5078312;28;19943;-78
2022/03/02 02:15:04;;;;;;;;;;;10.70;92.00;;;;;;5077846;28;19956;-78
2022/03/02 02:17:30;;;;;;;;;;;10.60;92.00;;;;;;5078063;28;20332;-78
2022/03/02 02:19:55;;;;;;;;;;;10.60;92.00;;;;;;5077542;28;20017;-79
2022/03/02 02:22:21;;;;;;;;;;;10.60;92.10;;;;;;5059956;28;19908;-79
2022/03/02 02:24:47;;;;;;;;;;;10.60;92.10;;;;;;5077735;28;19908;-78
2022/03/02 02:27:14;;;;;;;;;;;10.50;92.10;;;;;;5078024;28;20007;-79
2022/03/02 02:29:40;;;;;;;;;;;10.50;92.10;;;;;;5059680;28;19917;-79
2022/03/02 02:32:05;;;;;;;;;;;10.50;92.00;;;;;;5077883;28;19915;-78
2022/03/02 02:34:31;;;;;;;;;;;10.50;92.00;;;;;;5077357;28;19912;-78
2022/03/02 02:36:58;;;;;;;;;;;10.50;92.00;;;;;;5078029;28;19909;-78
2022/03/02 02:39:24;;;;;;;;;;;10.40;91.90;;;;;;5077350;28;19955;-78
2022/03/02 02:41:50;;;;;;;;;;;10.40;91.80;;;;;;5077636;28;19912;-78
2022/03/02 02:44:15;;;;;;;;;;;10.40;91.80;;;;;;5075286;28;19928;-78
2022/03/02 02:46:42;;;;;;;;;;;10.40;91.80;;;;;;5066440;28;20528;-78
2022/03/02 02:49:08;;;;;;;;;;;10.40;91.80;;;;;;5077276;28;19909;-78
2022/03/02 02:51:33;;;;;;;;;;;10.40;91.80;;;;;;5077766;28;20389;-78
2022/03/02 02:53:59;;;;;;;;;;;10.40;91.90;;;;;;5077382;28;20006;-79
2022/03/02 02:56:25;;;;;;;;;;;10.40;91.80;;;;;;5077854;28;19909;-78
2022/03/02 02:58:50;;;;;;;;;;;10.30;91.70;;;;;;5077563;28;19915;-78
2022/03/02 03:01:17;;;;;;;;;;;10.30;91.70;;;;;;5077761;28;19959;-78
2022/03/02 03:03:42;;;;;;;;;;;10.30;91.60;;;;;;5077146;28;19909;-78
2022/03/02 03:06:08;;;;;;;;;;;10.30;91.50;;;;;;5077426;28;20431;-78
2022/03/02 03:08:34;;;;;;;;;;;10.30;91.50;;;;;;5077479;28;19909;-78
2022/03/02 03:10:59;;;;;;;;;;;10.30;91.60;;;;;;5077591;28;19934;-78
2022/03/02 03:13:25;;;;;;;;;;;10.30;91.40;;;;;;5077324;28;19919;-78
2022/03/02 03:15:51;;;;;;;;;;;10.30;91.40;;;;;;5077532;28;19955;-79
2022/03/02 03:18:16;;;;;;;;;;;10.30;91.30;;;;;;5077345;28;19909;-79
2022/03/02 03:20:42;;;;;;;;;;;10.30;91.30;;;;;;5077293;28;19940;-78
2022/03/02 03:23:08;;;;;;;;;;;10.30;91.20;;;;;;5077242;28;19916;-78
2022/03/02 03:25:34;;;;;;;;;;;10.30;91.20;;;;;;5077393;28;19908;-78
2022/03/02 03:27:59;;;;;;;;;;;10.20;91.10;;;;;;5059214;28;20325;-78
2022/03/02 03:30:25;;;;;;;;;;;10.20;91.00;;;;;;5077651;28;19950;-78
2022/03/02 03:32:51;;;;;;;;;;;10.20;91.00;;;;;;5077048;28;19982;-78
2022/03/02 03:35:18;;;;;;;;;;;10.20;91.00;;;;;;5077079;28;19919;-78
2022/03/02 03:37:44;;;;;;;;;;;10.20;90.90;;;;;;5077088;28;19993;-78
2022/03/02 03:40:11;;;;;;;;;;;10.20;90.90;;;;;;5077031;28;19913;-78
2022/03/02 03:42:37;;;;;;;;;;;10.20;90.80;;;;;;5076920;28;19908;-78
2022/03/02 03:45:03;;;;;;;;;;;10.20;90.90;;;;;;5068271;28;19920;-78
2022/03/02 03:47:29;;;;;;;;;;;10.20;90.90;;;;;;5087880;28;19931;-78
2022/03/02 03:49:54;;;;;;;;;;;10.10;91.10;;;;;;5076971;28;20350;-78
2022/03/02 03:52:20;;;;;;;;;;;10.20;90.80;;;;;;5076812;28;19908;-78
2022/03/02 03:54:46;;;;;;;;;;;10.10;90.80;;;;;;5078836;28;19997;-78
2022/03/02 03:57:11;;;;;;;;;;;10.10;90.80;;;;;;5080619;28;19990;-78
2022/03/02 03:59:37;;;;;;;;;;;10.10;90.80;;;;;;5080751;28;19908;-78
2022/03/02 04:02:03;;;;;;;;;;;10.20;90.80;;;;;;5080438;28;19946;-78
2022/03/02 04:04:28;;;;;;;;;;;10.10;90.80;;;;;;5079977;28;19931;-78
2022/03/02 04:06:54;;;;;;;;;;;10.10;90.80;;;;;;5062233;28;19909;-78
2022/03/02 04:09:20;;;;;;;;;;;10.10;90.80;;;;;;5080563;28;19962;-78
2022/03/02 04:11:46;;;;;;;;;;;10.10;90.70;;;;;;5080273;28;19921;-78
2022/03/02 04:14:11;;;;;;;;;;;10.10;90.70;;;;;;5080613;28;20290;-78
2022/03/02 04:16:37;;;;;;;;;;;10.10;90.70;;;;;;5080208;28;19962;-78
2022/03/02 04:19:04;;;;;;;;;;;10.10;90.70;;;;;;5080193;28;20009;-78
2022/03/02 04:21:30;;;;;;;;;;;10.00;90.70;;;;;;5080048;28;19913;-78
2022/03/02 04:23:55;;;;;;;;;;;10.00;90.80;;;;;;5080099;28;19930;-78
2022/03/02 04:26:21;;;;;;;;;;;10.00;90.70;;;;;;5061936;28;20007;-78
2022/03/02 04:28:47;;;;;;;;;;;10.00;90.70;;;;;;5080239;28;19909;-78
2022/03/02 04:31:12;;;;;;;;;;;10.00;90.70;;;;;;5061929;28;19916;-78
2022/03/02 04:33:38;;;;;;;;;;;10.00;90.70;;;;;;5079821;28;19978;-78
2022/03/02 04:36:04;;;;;;;;;;;9.90;90.70;;;;;;5079647;28;19916;-78
2022/03/02 04:38:30;;;;;;;;;;;9.90;90.70;;;;;;5080049;28;20372;-78
2022/03/02 04:40:55;;;;;;;;;;;9.90;90.80;;;;;;5079485;28;19917;-78
2022/03/02 04:43:21;;;;;;;;;;;9.90;90.70;;;;;;5079816;28;19915;-79
2022/03/02 04:45:49;;;;;;;;;;;9.90;90.80;;;;;;5065604;28;20190;-79
2022/03/02 04:48:14;;;;;;;;;;;9.90;90.70;;;;;;5062237;28;19913;-79
2022/03/02 04:50:40;;;;;;;;;;;9.90;90.60;;;;;;5079527;28;19909;-79
2022/03/02 04:53:06;;;;;;;;;;;9.80;90.50;;;;;;5079641;28;19908;-78
2022/03/02 04:55:31;;;;;;;;;;;9.80;90.40;;;;;;5079548;28;19909;-79
2022/03/02 04:57:58;;;;;;;;;;;9.80;90.40;;;;;;5079656;28;20430;-79
2022/03/02 05:00:25;;;;;;;;;;;9.80;90.30;;;;;;5079268;28;19909;-79
2022/03/02 05:02:52;;;;;;;;;;;9.80;90.20;;;;;;5079429;28;19909;-79
2022/03/02 05:05:19;;;;;;;;;;;9.80;90.10;;;;;;5057155;28;19923;-78
2022/03/02 05:07:45;;;;;;;;;;;9.80;90.10;;;;;;5079347;28;19916;-79
2022/03/02 05:10:13;;;;;;;;;;;9.80;90.10;;;;;;5079086;28;19908;-79
2022/03/02 05:12:39;;;;;;;;;;;9.70;90.10;;;;;;5061220;28;20352;-79
2022/03/02 05:15:06;;;;;;;;;;;9.80;90.20;;;;;;5078946;28;20031;-78
2022/03/02 05:17:32;;;;;;;;;;;9.70;90.20;;;;;;5079178;28;19909;-79
2022/03/02 05:19:57;;;;;;;;;;;9.70;90.10;;;;;;5078700;28;19916;-78
2022/03/02 05:22:23;;;;;;;;;;;9.70;90.10;;;;;;5079130;28;19908;-78
2022/03/02 05:24:49;;;;;;;;;;;9.70;90.10;;;;;;5078752;28;19909;-78
2022/03/02 05:27:14;;;;;;;;;;;9.70;90.10;;;;;;5079050;28;19991;-77
2022/03/02 05:29:40;;;;;;;;;;;9.70;90.30;;;;;;5078787;28;19912;-77
2022/03/02 05:32:06;;;;;;;;;;;9.70;90.00;;;;;;5078847;28;19909;-78
2022/03/02 05:34:32;;;;;;;;;;;9.70;89.90;;;;;;5078307;28;19912;-79
2022/03/02 05:36:57;;;;;;;;;;;9.60;89.80;;;;;;5079053;28;19965;-79
2022/03/02 05:39:23;;;;;;;;;;;9.60;89.70;;;;;;5078280;28;19908;-78
2022/03/02 05:41:49;;;;;;;;;;;9.70;89.80;;;;;;5078762;28;20307;-83
2022/03/02 05:44:15;;;;;;;;;;;9.60;89.60;;;;;;5076287;28;19920;-83
2022/03/02 05:46:41;;;;;;;;;;;9.60;89.60;;;;;;5067374;28;20398;-79
2022/03/02 05:49:08;;;;;;;;;;;9.60;89.50;;;;;;5078129;28;19916;-85
2022/03/02 05:51:34;;;;;;;;;;;9.60;89.50;;;;;;5078525;28;19908;-84
2022/03/02 05:54:00;;;;;;;;;;;9.60;89.60;;;;;;5078098;28;20000;-85
2022/03/02 05:56:25;;;;;;;;;;;9.60;89.40;;;;;;5078480;28;19940;-80
2022/03/02 05:58:54;;;;;;;;;;;9.60;89.30;;;;;;5078189;28;19927;-78
2022/03/02 06:01:20;;;;;;;;;;;9.60;89.40;;;;;;5078455;28;20275;-80
2022/03/02 06:03:46;;;;;;;;;;;9.50;89.20;;;;;;5077613;28;19909;-80
2022/03/02 06:06:12;;;;;;;;;;;9.50;89.00;;;;;;5060192;28;19947;-83
2022/03/02 06:08:39;;;;;;;;;;;9.50;88.90;;;;;;5078031;28;19909;-78
2022/03/02 06:11:04;;;;;;;;;;;9.50;88.90;;;;;;5078156;28;19912;-75
2022/03/02 06:13:30;;;;;;;;;;;9.50;88.80;;;;;;5077904;28;19961;-76
2022/03/02 06:16:00;;;;;;;;;;;9.50;88.90;;;;;;5060399;28;19909;-76
2022/03/02 06:18:26;;;;;;;;;;;9.50;88.90;;;;;;5058245;28;19915;-76
2022/03/02 06:20:52;;;;;;;;;;;9.50;88.90;;;;;;5066106;28;19908;-76
2022/03/02 06:23:19;;;;;;;;;;;9.40;88.80;;;;;;5067023;28;20393;-76
2022/03/02 06:25:45;;;;;;;;;;;9.40;88.80;;;;;;5059876;28;19909;-76
2022/03/02 06:28:10;;;;;;;;;;;9.40;88.70;;;;;;5059922;28;19916;-76
2022/03/02 06:30:36;;;;;;;;;;;9.40;89.40;;;;;;5060214;28;19909;-76
2022/03/02 06:33:02;;;;;;;;;;;9.40;88.80;;;;;;5076971;28;20429;-76
2022/03/02 06:35:27;;;;;;;;;;;9.40;88.80;;;;;;5077252;28;19912;-76
2022/03/02 06:37:53;;;;;;;;;;;9.40;88.80;;;;;;5077621;28;19959;-76
2022/03/02 06:40:19;;;;;;;;;;;9.40;88.90;;;;;;5077931;28;19909;-76
2022/03/02 06:42:59;;;;;;;;;;;9.40;88.90;;;;;;5077300;28;19915;-76
2022/03/02 06:45:44;;;;;;;;;;;9.40;89.00;;;;;;5067619;28;19968;-76
2022/03/02 06:48:11;;;;;;;;;;;9.40;89.20;;;;;;5073824;28;19919;-75
2022/03/02 06:50:38;;;;;;;;;;;9.40;89.20;;;;;;5076963;28;19909;-75
2022/03/02 06:53:05;;;;;;;;;;;9.40;89.30;;;;;;5077326;28;19934;-75
2022/03/02 06:55:30;;;;;;;;;;;9.40;89.30;;;;;;5072319;28;19916;-76
2022/03/02 06:57:56;;;;;;;;;;;9.40;89.30;;;;;;5077802;28;19915;-76
2022/03/02 07:00:23;;;;;;;;;;;9.40;89.40;;;;;;5076199;28;20011;-76
2022/03/02 07:02:51;;;;;;;;;;;9.40;89.30;;;;;;5075915;28;19919;-76
2022/03/02 07:05:17;;;;;;;;;;;9.40;89.20;;;;;;5074987;28;20247;-76
2022/03/02 07:07:44;;;;;;;;;;;9.40;89.20;;;;;;5077375;28;19908;-76
2022/03/02 07:10:09;;;;;;;;;;;9.40;89.10;;;;;;5075482;28;19916;-75
2022/03/02 07:12:36;;;;;;;;;;;9.40;89.10;;;;;;5075454;28;20322;-76
2022/03/02 07:15:03;;;;;;;;;;;9.40;89.10;;;;;;5062082;28;19966;-76
2022/03/02 07:17:32;;;;;;;;;;;9.40;89.10;;;;;;5059520;28;19908;-76
2022/03/02 07:19:58;;;;;;;;;;;9.40;89.00;;;;;;5077083;28;20367;-74
2022/03/02 07:22:27;;;;;;;;;;;9.40;89.10;;;;;;5077293;28;20279;-76
2022/03/02 07:24:53;;;;;;;;;;;9.40;89.00;;;;;;5059235;28;19995;-75
2022/03/02 07:27:19;;;;;;;;;;;9.40;88.90;;;;;;5077226;28;19908;-76
2022/03/02 07:29:48;;;;;;;;;;;9.40;88.80;;;;;;5079056;28;19912;-76
2022/03/02 07:32:15;;;;;;;;;;;9.40;88.70;;;;;;5081080;28;19908;-76
2022/03/02 07:34:42;;;;;;;;;;;9.40;88.70;;;;;;5080275;28;20306;-76
2022/03/02 07:37:09;;;;;;;;;;;9.40;88.70;;;;;;5081038;28;19909;-76
2022/03/02 07:39:35;;;;;;;;;;;9.40;88.70;;;;;;5080435;28;19909;-76
2022/03/02 07:42:02;;;;;;;;;;;9.40;88.70;;;;;;5080910;28;19915;-76
2022/03/02 07:44:28;;;;;;;;;;;9.40;88.70;;;;;;5076768;28;19927;-76
2022/03/02 07:46:54;;;;;;;;;;;9.40;88.70;;;;;;5071323;28;19952;-76
2022/03/02 07:49:20;;;;;;;;;;;9.40;88.70;;;;;;5080295;28;19913;-76
2022/03/02 07:51:46;;;;;;;;;;;9.40;88.70;;;;;;5062554;28;19909;-76
2022/03/02 07:54:14;;;;;;;;;;;9.40;88.60;;;;;;5080034;28;19919;-76
2022/03/02 07:56:40;;;;;;;;;;;9.40;88.70;;;;;;5080183;28;19912;-76
2022/03/02 07:59:06;;;;;;;;;;;9.50;88.70;;;;;;5064739;28;19931;-76
2022/03/02 08:01:34;;;;;;;;;;;9.50;88.80;;;;;;5080591;28;19909;-76
2022/03/02 08:04:03;;;;;;;;;;;9.50;88.80;;;;;;5079853;28;19912;-75
2022/03/02 08:06:31;;;;;;;;;;;9.50;88.70;;;;;;5080317;28;20381;-76
2022/03/02 08:08:57;;;;;;;;;;;9.60;88.50;;;;;;5080119;28;19958;-76
2022/03/02 08:11:23;;;;;;;;;;;9.60;88.50;;;;;;5080250;28;19908;-75
2022/03/02 08:13:48;;;;;;;;;;;9.60;88.50;;;;;;5080021;28;19913;-73
2022/03/02 08:16:15;;;;;;;;;;;9.60;88.90;;;;;;5062492;28;19908;-76
2022/03/02 08:18:40;;;;;;;;;;;9.60;88.70;;;;;;5079780;28;19912;-76
2022/03/02 08:21:06;;;;;;;;;;;9.60;88.60;;;;;;5080116;28;19908;-76
2022/03/02 08:23:39;;;;;;;;;;;9.70;88.80;;;;;;5080072;28;19940;-76
2022/03/02 08:26:05;;;;;;;;;;;9.70;88.90;;;;;;5079815;28;20419;-76
2022/03/02 08:28:35;;;;;;;;;;;9.80;88.90;;;;;;5078440;28;19932;-76
2022/03/02 08:31:01;;;;;;;;;;;9.80;88.70;;;;;;5078144;28;19958;-76
2022/03/02 08:33:27;;;;;;;;;;;9.80;88.70;;;;;;5078031;28;19909;-74
2022/03/02 08:35:53;;;;;;;;;;;9.90;88.60;;;;;;5079595;28;20003;-76
2022/03/02 08:38:19;;;;;;;;;;;9.90;88.70;;;;;;5080079;28;19916;-76
2022/03/02 08:40:45;;;;;;;;;;;10.00;88.70;;;;;;5078868;28;19908;-76
2022/03/02 08:43:13;;;;;;;;;;;10.10;88.60;;;;;;5062023;28;19909;-76
2022/03/02 08:45:38;;;;;;;;;;;10.10;88.50;;;;;;5076829;28;19927;-76
2022/03/02 08:48:05;;;;;;;;;;;10.20;88.70;;;;;;5061720;28;19908;-76
2022/03/02 08:50:31;;;;;;;;;;;10.30;88.60;;;;;;5079250;28;20087;-76
2022/03/02 08:52:57;;;;;;;;;;;10.30;88.40;;;;;;5061498;28;19948;-75
2022/03/02 08:55:23;;;;;;;;;;;10.40;88.40;;;;;;5079207;28;19999;-76
2022/03/02 08:57:50;;;;;;;;;;;10.40;88.30;;;;;;5061664;28;19915;-76
2022/03/02 09:00:16;;;;;;;;;;;10.50;88.00;;;;;;5079311;28;20440;-74
2022/03/02 09:02:42;;;;;;;;;;;10.60;87.80;;;;;;5079522;28;19912;-76
2022/03/02 09:05:08;;;;;;;;;;;10.60;88.00;;;;;;5060843;28;20275;-76
2022/03/02 09:07:33;;;;;;;;;;;10.70;88.10;;;;;;5079429;28;19908;-76
2022/03/02 09:10:00;;;;;;;;;;;10.70;87.60;;;;;;5079011;28;19908;-76
2022/03/02 09:12:25;;;;;;;;;;;10.80;86.60;;;;;;5079259;28;19908;-76
2022/03/02 09:14:51;;;;;;;;;;;10.80;86.40;;;;;;5078848;28;19916;-76
2022/03/02 09:17:28;;;;;;;;;;;10.90;86.40;;;;;;5077615;28;19916;-76
2022/03/02 09:19:54;;;;;;;;;;;10.90;86.00;;;;;;5078274;28;19958;-76
2022/03/02 09:22:22;;;;;;;;;;;11.00;85.60;;;;;;5061265;28;19909;-76
2022/03/02 09:24:48;;;;;;;;;;;11.00;85.50;;;;;;5078169;28;20390;-76
2022/03/02 09:27:16;;;;;;;;;;;11.00;84.80;;;;;;5078833;28;19912;-76
2022/03/02 09:29:44;;;;;;;;;;;11.00;84.50;;;;;;5078757;28;19916;-76
2022/03/02 09:32:10;;;;;;;;;;;11.10;84.20;;;;;;5078514;28;19909;-76
2022/03/02 09:34:37;;;;;;;;;;;11.10;84.40;;;;;;5078230;28;20008;-76
2022/03/02 09:37:03;;;;;;;;;;;11.20;84.60;;;;;;5078609;28;19909;-75
2022/03/02 09:39:29;;;;;;;;;;;11.20;84.80;;;;;;5060262;28;19958;-76
2022/03/02 09:41:59;;;;;;;;;;;11.30;84.50;;;;;;5078099;28;19909;-74
2022/03/02 09:44:29;;;;;;;;;;;11.30;84.40;;;;;;5074847;28;20465;-76
2022/03/02 09:46:57;;;;;;;;;;;11.40;84.90;;;;;;5069155;28;20003;-76
2022/03/02 09:49:24;;;;;;;;;;;11.40;84.30;;;;;;5077984;28;19915;-76
2022/03/02 09:51:51;;;;;;;;;;;11.40;84.40;;;;;;5077865;28;19913;-76
2022/03/02 09:54:20;;;;;;;;;;;11.40;84.30;;;;;;5078138;28;20014;-74
2022/03/02 09:56:48;;;;;;;;;;;11.40;83.90;;;;;;5078420;28;19909;-74
2022/03/02 09:59:13;;;;;;;;;;;11.40;83.90;;;;;;5078002;28;19920;-74
2022/03/02 10:01:41;;;;;;;;;;;11.40;84.10;;;;;;5060637;28;20363;-74
2022/03/02 10:04:17;;;;;;;;;;;11.50;83.80;;;;;;5077580;28;19909;-76
2022/03/02 10:06:44;;;;;;;;;;;11.50;83.70;;;;;;5077577;28;19916;-76
2022/03/02 10:09:10;;;;;;;;;;;11.50;83.40;;;;;;5060017;28;19914;-76
2022/03/02 10:11:39;;;;;;;;;;;11.50;83.40;;;;;;5077994;28;19909;-76
2022/03/02 10:14:05;;;;;;;;;;;11.50;83.50;;;;;;5077864;28;20378;-76
2022/03/02 10:16:35;;;;;;;;;;;11.50;83.80;;;;;;5060143;28;19912;-76
2022/03/02 10:19:02;;;;;;;;;;;11.60;84.20;;;;;;5059877;28;19912;-76
2022/03/02 10:21:37;;;;;;;;;;;11.70;84.40;;;;;;5077826;28;20389;-76
2022/03/02 10:24:03;;;;;;;;;;;11.80;84.60;;;;;;5077969;28;19916;-76
2022/03/02 10:26:40;;;;;;;;;;;11.90;84.20;;;;;;5077793;28;19993;-76
2022/03/02 10:29:06;;;;;;;;;;;12.00;85.10;;;;;;5077946;28;19987;-76
2022/03/02 10:31:41;;;;;;;;;;;12.10;84.20;;;;;;5077716;28;19908;-76
2022/03/02 10:34:07;;;;;;;;;;;12.20;83.70;;;;;;5070523;28;19921;-76
2022/03/02 10:36:37;;;;;;;;;;;12.30;83.50;;;;;;5077938;28;19913;-76
2022/03/02 10:39:05;;;;;;;;;;;12.40;83.70;;;;;;5077262;28;20302;-77
2022/03/02 10:41:33;;;;;;;;;;;12.50;84.00;;;;;;5076346;28;20011;-76
2022/03/02 10:44:02;;;;;;;;;;;12.60;83.30;;;;;;5075749;28;19916;-75
2022/03/02 10:46:29;;;;;;;;;;;12.70;83.70;;;;;;5064419;28;19931;-74
2022/03/02 10:48:54;;;;;;;;;;;12.80;82.90;;;;;;5075323;28;19966;-74
2022/03/02 10:51:23;;;;;;;;;;;12.90;82.40;;;;;;5075921;28;20325;-74
2022/03/02 10:53:50;;;;;;;;;;;13.00;81.70;;;;;;5076664;28;19912;-74
2022/03/02 10:56:19;;;;;;;;;;;13.20;82.70;;;;;;5077602;28;19915;-74
2022/03/02 10:58:48;;;;;;;;;;;13.30;82.60;;;;;;5077502;28;19908;-76
2022/03/02 11:01:13;;;;;;;;;;;13.50;83.30;;;;;;5077494;28;19962;-77
2022/03/02 11:03:39;;;;;;;;;;;13.70;82.90;;;;;;5079083;28;19909;-74
2022/03/02 11:06:08;;;;;;;;;;;13.90;83.00;;;;;;5081425;28;19951;-74
2022/03/02 11:08:35;;;;;;;;;;;14.10;82.60;;;;;;5081485;28;19908;-74
2022/03/02 11:11:01;;;;;;;;;;;14.20;82.00;;;;;;5081473;28;19908;-74
2022/03/02 11:13:28;;;;;;;;;;;14.40;80.90;;;;;;5063243;28;20491;-74
2022/03/02 11:15:55;;;;;;;;;;;14.50;81.30;;;;;;5081345;28;20501;-74
2022/03/02 11:18:40;;;;;;;;;;;14.60;80.40;;;;;;5081123;28;19923;-74
2022/03/02 11:21:08;;;;;;;;;;;14.70;80.70;;;;;;5081010;28;20330;-74
2022/03/02 11:23:44;;;;;;;;;;;14.80;80.60;;;;;;5081130;28;19955;-74
2022/03/02 11:26:12;;;;;;;;;;;14.90;80.20;;;;;;5079584;28;19951;-74
2022/03/02 11:28:38;;;;;;;;;;;14.90;80.40;;;;;;5081106;28;19947;-74
2022/03/02 11:31:06;;;;;;;;;;;15.10;80.30;;;;;;5063041;28;19908;-74
2022/03/02 11:33:32;;;;;;;;;;;15.30;79.30;;;;;;5080628;28;19912;-74
2022/03/02 11:36:04;;;;;;;;;;;15.40;80.10;;;;;;5062771;28;19916;-74
2022/03/02 11:38:31;;;;;;;;;;;15.40;79.20;;;;;;5080566;28;19913;-71
2022/03/02 11:40:57;;;;;;;;;;;15.50;79.20;;;;;;5062224;28;19908;-71
2022/03/02 11:43:26;;;;;;;;;;;15.70;79.60;;;;;;5080813;28;19916;-75
2022/03/02 11:45:56;;;;;;;;;;;15.80;79.30;;;;;;5067315;28;19916;-74
2022/03/02 11:48:23;;;;;;;;;;;16.00;79.20;;;;;;5080671;28;19915;-74
2022/03/02 11:51:03;;;;;;;;;;;16.20;78.90;;;;;;5079810;28;19913;-75
2022/03/02 11:53:34;;;;;;;;;;;16.50;77.30;;;;;;5080089;28;19924;-75
2022/03/02 11:56:01;;;;;;;;;;;16.70;78.50;;;;;;5080353;28;19915;-73
2022/03/02 11:58:27;;;;;;;;;;;17.10;77.10;;;;;;5080736;28;19915;-76
2022/03/02 12:01:04;;;;;;;;;;;17.50;77.70;;;;;;5080618;28;19909;-74
2022/03/02 12:03:30;;;;;;;;;;;17.80;77.80;;;;;;5079979;28;19909;-72
2022/03/02 12:06:04;;;;;;;;;;;18.20;77.10;;;;;;5080329;28;19908;-75
2022/03/02 12:08:32;;;;;;;;;;;18.30;77.90;;;;;;5080356;28;19908;-74
2022/03/02 12:11:01;;;;;;;;;;;18.50;74.40;;;;;;5080355;28;20317;-74
2022/03/02 12:13:27;;;;;;;;;;;18.50;74.70;;;;;;5078559;28;19909;-74
2022/03/02 12:15:54;;;;;;;;;;;18.60;74.50;;;;;;5078005;28;20379;-74
2022/03/02 12:18:20;;;;;;;;;;;18.60;73.90;;;;;;5061598;28;19958;-74
2022/03/02 12:20:47;;;;;;;;;;;18.70;74.20;;;;;;5071762;28;20283;-74
2022/03/02 12:23:19;;;;;;;;;;;18.80;74.30;;;;;;5079629;28;19909;-74
2022/03/02 12:25:45;;;;;;;;;;;19.00;73.10;;;;;;5080128;28;19908;-74
2022/03/02 12:28:15;;;;;;;;;;;19.00;72.60;;;;;;5079908;28;19912;-74
2022/03/02 12:30:40;;;;;;;;;;;19.10;72.60;;;;;;5079952;28;20010;-73
2022/03/02 12:33:07;;;;;;;;;;;19.20;71.60;;;;;;5079746;28;20418;-74
2022/03/02 12:35:32;;;;;;;;;;;19.20;70.80;;;;;;5079728;28;20000;-74
2022/03/02 12:38:00;;;;;;;;;;;19.10;69.00;;;;;;5061862;28;20386;-74
2022/03/02 12:40:28;;;;;;;;;;;19.10;68.50;;;;;;5079647;28;20278;-74
2022/03/02 12:42:55;;;;;;;;;;;19.10;70.60;;;;;;5048546;28;19920;-74
2022/03/02 12:45:20;;;;;;;;;;;19.10;71.20;;;;;;5068488;28;19935;-74
2022/03/02 12:47:47;;;;;;;;;;;19.30;70.40;;;;;;5059106;28;19909;-74
2022/03/02 12:50:13;;;;;;;;;;;19.60;71.00;;;;;;5061610;28;19908;-73
2022/03/02 12:52:39;;;;;;;;;;;19.70;67.20;;;;;;5061570;28;20318;-74
2022/03/02 12:55:06;;;;;;;;;;;19.70;68.90;;;;;;5079508;28;19952;-73
2022/03/02 12:57:32;;;;;;;;;;;19.50;68.50;;;;;;5061409;28;19915;-73
2022/03/02 12:59:59;;;;;;;;;;;19.30;69.60;;;;;;5061743;28;19908;-74
2022/03/02 13:02:33;;;;;;;;;;;19.20;68.60;;;;;;5079171;28;19958;-74
2022/03/02 13:05:10;;;;;;;;;;;19.10;70.70;;;;;;5078871;28;19915;-74
2022/03/02 13:07:35;;;;;;;;;;;18.90;67.90;;;;;;5067212;28;19909;-74
2022/03/02 13:10:02;;;;;;;;;;;18.90;69.80;;;;;;5061051;28;19908;-74
2022/03/02 13:12:33;;;;;;;;;;;18.90;69.30;;;;;;5061335;28;20352;-74
2022/03/02 13:14:59;;;;;;;;;;;19.00;71.20;;;;;;5078985;28;19919;-73
2022/03/02 13:17:26;;;;;;;;;;;19.30;68.40;;;;;;5079202;28;19909;-73
2022/03/02 13:19:52;;;;;;;;;;;19.50;68.90;;;;;;5078650;28;19908;-74
2022/03/02 13:22:23;;;;;;;;;;;19.60;68.80;;;;;;5079066;28;20371;-74
2022/03/02 13:24:50;;;;;;;;;;;19.80;69.30;;;;;;5078578;28;19909;-74
2022/03/02 13:27:16;;;;;;;;;;;20.10;70.00;;;;;;5076341;28;19916;-74
2022/03/02 13:29:49;;;;;;;;;;;20.30;68.40;;;;;;5078643;28;19909;-74
2022/03/02 13:32:15;;;;;;;;;;;20.50;66.80;;;;;;5078736;28;19908;-74
2022/03/02 13:35:01;;;;;;;;;;;20.60;66.40;;;;;;5078042;28;19913;-74
2022/03/02 13:37:46;;;;;;;;;;;20.60;66.90;;;;;;5078707;28;19958;-74
2022/03/02 13:40:35;;;;;;;;;;;20.50;66.20;;;;;;5073606;28;19959;-74
2022/03/02 13:43:06;;;;;;;;;;;20.30;65.50;;;;;;5064184;28;20295;-74
2022/03/02 13:45:36;;;;;;;;;;;20.10;67.00;;;;;;5048886;28;19928;-75
2022/03/02 13:48:18;;;;;;;;;;;19.80;66.10;;;;;;5060200;28;19909;-74
2022/03/02 13:51:00;;;;;;;;;;;19.60;67.30;;;;;;5078476;28;19916;-74
2022/03/02 13:53:39;;;;;;;;;;;19.40;67.00;;;;;;5078267;28;20375;-73
2022/03/02 13:56:07;;;;;;;;;;;19.30;67.20;;;;;;5078084;28;19908;-75
2022/03/02 13:58:34;;;;;;;;;;;19.00;64.60;;;;;;5077643;28;19909;-75
2022/03/02 14:01:24;;;;;;;;;;;19.00;65.10;;;;;;5076745;28;20606;-74
2022/03/02 14:03:59;;;;;;;;;;;18.90;65.80;;;;;;5075229;28;20348;-74
2022/03/02 14:06:25;;;;;;;;;;;18.80;67.60;;;;;;5077983;28;20272;-73
2022/03/02 14:08:52;;;;;;;;;;;18.80;67.60;;;;;;5077657;28;20707;-74
2022/03/02 14:11:29;;;;;;;;;;;18.70;67.60;;;;;;5078156;28;19915;-74
2022/03/02 14:13:55;;;;;;;;;;;18.60;67.90;;;;;;5064776;28;19912;-74
2022/03/02 14:16:21;;;;;;;;;;;18.60;68.70;;;;;;5059900;28;20008;-74
2022/03/02 14:18:47;;;;;;;;;;;18.50;69.10;;;;;;5077846;28;19916;-74
2022/03/02 14:21:13;;;;;;;;;;;18.50;69.70;;;;;;5078078;28;19909;-74